EAG5508 SKCG-SEGU
Flight info
| Callsign | EAG5508 |
|---|---|
| Flight time | 1h 52m |
| Altitude | 43000 |
| Route | CTG DCT ANRON/N0480F410 UQ102 PUKAM/N0476F430 DCT ENSOL DCT MIDEX UW1 DAKAB |
| Aircraft | C700/M-SBDGHM1RWXY/LB2 |
Departure
| Time | 2026-05-05 15:03 |
|---|---|
| Airport | Rafael Nuñez International Airport (SKCG) |
Arrival
| Time | 2026-05-05 16:55 |
|---|---|
| Airport | José Joaquín de Olmedo International Airport (SEGU) |
| Time | Latitude | Longitude | Altitude | Speed | Heading |
|---|---|---|---|---|---|
| 2026-05-05 14:47 | 10.44589 | -75.51040 | 45 ft | 0 kts | 92° |
| 2026-05-05 14:52 | 10.44589 | -75.51059 | 44 ft | 4 kts | 58° |
| 2026-05-05 14:52 | 10.44581 | -75.51065 | 43 ft | 1 kts | 3° |
| 2026-05-05 14:52 | 10.44578 | -75.51065 | 44 ft | 0 kts | 3° |
| 2026-05-05 14:58 | 10.44604 | -75.51064 | 42 ft | 10 kts | 1° |
| 2026-05-05 14:58 | 10.44666 | -75.51105 | 45 ft | 13 kts | 285° |
| 2026-05-05 14:58 | 10.44669 | -75.51177 | 45 ft | 0 kts | 273° |
| 2026-05-05 14:58 | 10.44669 | -75.51190 | 45 ft | 9 kts | 272° |
| 2026-05-05 14:59 | 10.44660 | -75.51293 | 45 ft | 17 kts | 252° |
| 2026-05-05 14:59 | 10.44596 | -75.51362 | 43 ft | 15 kts | 181° |
| 2026-05-05 14:59 | 10.44525 | -75.51287 | 45 ft | 16 kts | 142° |
| 2026-05-05 14:59 | 10.44383 | -75.51284 | 45 ft | 25 kts | 182° |
| 2026-05-05 15:00 | 10.44184 | -75.51290 | 42 ft | 32 kts | 184° |
| 2026-05-05 15:00 | 10.44033 | -75.51298 | 43 ft | 34 kts | 183° |
| 2026-05-05 15:00 | 10.43707 | -75.51311 | 45 ft | 36 kts | 181° |
| 2026-05-05 15:00 | 10.43463 | -75.51320 | 45 ft | 34 kts | 181° |
| 2026-05-05 15:01 | 10.43263 | -75.51327 | 44 ft | 16 kts | 181° |
| 2026-05-05 15:01 | 10.43172 | -75.51258 | 45 ft | 19 kts | 136° |
| 2026-05-05 15:01 | 10.43071 | -75.51247 | 45 ft | 17 kts | 234° |
| 2026-05-05 15:01 | 10.43081 | -75.51335 | 44 ft | 11 kts | 343° |
| 2026-05-05 15:02 | 10.43099 | -75.51336 | 45 ft | 0 kts | 1° |
| 2026-05-05 15:02 | 10.43284 | -75.51328 | 45 ft | 73 kts | 2° |
| 2026-05-05 15:02 | 10.44095 | -75.51292 | 66 ft | 156 kts | 3° |
| 2026-05-05 15:02 | 10.45369 | -75.51235 | 600 ft | 206 kts | 4° |
| 2026-05-05 15:03 | 10.46927 | -75.51141 | 1523 ft | 242 kts | 3° |
| 2026-05-05 15:03 | 10.48697 | -75.51121 | 2863 ft | 251 kts | 1° |
| 2026-05-05 15:03 | 10.50479 | -75.51094 | 4329 ft | 270 kts | 4° |
| 2026-05-05 15:03 | 10.52364 | -75.51015 | 5939 ft | 272 kts | 5° |
| 2026-05-05 15:04 | 10.54229 | -75.50594 | 7307 ft | 279 kts | 31° |
| 2026-05-05 15:04 | 10.55574 | -75.49236 | 8835 ft | 275 kts | 63° |
| 2026-05-05 15:04 | 10.56034 | -75.47373 | 10270 ft | 278 kts | 92° |
| 2026-05-05 15:04 | 10.55502 | -75.45418 | 11181 ft | 303 kts | 121° |
| 2026-05-05 15:05 | 10.51776 | -75.43494 | 13849 ft | 328 kts | 179° |
| 2026-05-05 15:05 | 10.49537 | -75.44087 | 15018 ft | 341 kts | 201° |
| 2026-05-05 15:05 | 10.47448 | -75.45224 | 16179 ft | 350 kts | 207° |
| 2026-05-05 15:06 | 10.45308 | -75.46456 | 17345 ft | 357 kts | 205° |
| 2026-05-05 15:06 | 10.43038 | -75.47513 | 18451 ft | 362 kts | 198° |
| 2026-05-05 15:06 | 10.40637 | -75.48348 | 19436 ft | 368 kts | 195° |
| 2026-05-05 15:06 | 10.38189 | -75.49193 | 20399 ft | 376 kts | 198° |
| 2026-05-05 15:07 | 10.35734 | -75.50181 | 21371 ft | 383 kts | 201° |
| 2026-05-05 15:07 | 10.33221 | -75.51141 | 22308 ft | 390 kts | 195° |
| 2026-05-05 15:07 | 10.30531 | -75.51591 | 23231 ft | 395 kts | 182° |
| 2026-05-05 15:07 | 10.27766 | -75.51463 | 24033 ft | 401 kts | 172° |
| 2026-05-05 15:08 | 10.25027 | -75.51061 | 24797 ft | 406 kts | 170° |
| 2026-05-05 15:08 | 10.22185 | -75.50890 | 25573 ft | 412 kts | 182° |
| 2026-05-05 15:08 | 10.19340 | -75.51330 | 26370 ft | 418 kts | 194° |
| 2026-05-05 15:08 | 10.16606 | -75.52362 | 27140 ft | 422 kts | 206° |
| 2026-05-05 15:09 | 10.13997 | -75.53769 | 27906 ft | 427 kts | 210° |
| 2026-05-05 15:09 | 10.11398 | -75.55270 | 28643 ft | 432 kts | 210° |
| 2026-05-05 15:09 | 10.08702 | -75.56654 | 29377 ft | 437 kts | 205° |
| 2026-05-05 15:09 | 10.05904 | -75.57906 | 30070 ft | 442 kts | 204° |
| 2026-05-05 15:10 | 10.03100 | -75.59220 | 30673 ft | 446 kts | 207° |
| 2026-05-05 15:10 | 10.00314 | -75.60639 | 31288 ft | 450 kts | 208° |
| 2026-05-05 15:10 | 9.97537 | -75.62038 | 31874 ft | 454 kts | 207° |
| 2026-05-05 15:10 | 9.94670 | -75.63413 | 32451 ft | 458 kts | 206° |
| 2026-05-05 15:11 | 9.91776 | -75.64798 | 33000 ft | 462 kts | 207° |
| 2026-05-05 15:11 | 9.88891 | -75.66217 | 33715 ft | 460 kts | 207° |
| 2026-05-05 15:11 | 9.86017 | -75.67638 | 34380 ft | 459 kts | 207° |
| 2026-05-05 15:11 | 9.83144 | -75.69036 | 35051 ft | 457 kts | 206° |
| 2026-05-05 15:12 | 9.80286 | -75.70422 | 35739 ft | 454 kts | 206° |
| 2026-05-05 15:12 | 9.77446 | -75.71808 | 36445 ft | 452 kts | 206° |
| 2026-05-05 15:12 | 9.74630 | -75.73188 | 37186 ft | 448 kts | 206° |
| 2026-05-05 15:12 | 9.71831 | -75.74553 | 37861 ft | 445 kts | 205° |
| 2026-05-05 15:13 | 9.69090 | -75.75888 | 38521 ft | 441 kts | 205° |
| 2026-05-05 15:13 | 9.66331 | -75.77232 | 39025 ft | 439 kts | 205° |
| 2026-05-05 15:13 | 9.63587 | -75.78571 | 39443 ft | 437 kts | 205° |
| 2026-05-05 15:13 | 9.60852 | -75.79905 | 39868 ft | 435 kts | 206° |
| 2026-05-05 15:14 | 9.58132 | -75.81230 | 40273 ft | 433 kts | 206° |
| 2026-05-05 15:14 | 9.55419 | -75.82552 | 40585 ft | 433 kts | 206° |
| 2026-05-05 15:14 | 9.52707 | -75.83873 | 40890 ft | 432 kts | 206° |
| 2026-05-05 15:14 | 9.49997 | -75.85193 | 41173 ft | 432 kts | 206° |
| 2026-05-05 15:15 | 9.47291 | -75.86511 | 41453 ft | 432 kts | 206° |
| 2026-05-05 15:15 | 9.44625 | -75.87809 | 41750 ft | 430 kts | 206° |
| 2026-05-05 15:15 | 9.41928 | -75.89122 | 42004 ft | 430 kts | 206° |
| 2026-05-05 15:15 | 9.39235 | -75.90433 | 42254 ft | 429 kts | 206° |
| 2026-05-05 15:16 | 9.36550 | -75.91740 | 42512 ft | 428 kts | 206° |
| 2026-05-05 15:16 | 9.33866 | -75.93046 | 42719 ft | 428 kts | 206° |
| 2026-05-05 15:16 | 9.31183 | -75.94351 | 42934 ft | 428 kts | 206° |
| 2026-05-05 15:17 | 9.25761 | -75.96989 | 42936 ft | 437 kts | 206° |
| 2026-05-05 15:17 | 9.20274 | -75.99657 | 42948 ft | 444 kts | 206° |
| 2026-05-05 15:18 | 9.14659 | -76.02386 | 42951 ft | 451 kts | 205° |
| 2026-05-05 15:18 | 9.08951 | -76.05158 | 42951 ft | 458 kts | 205° |
| 2026-05-05 15:19 | 9.03164 | -76.07970 | 42955 ft | 464 kts | 205° |
| 2026-05-05 15:19 | 8.97302 | -76.10815 | 42951 ft | 470 kts | 205° |
| 2026-05-05 15:20 | 8.91415 | -76.13673 | 42954 ft | 475 kts | 205° |
| 2026-05-05 15:20 | 8.85449 | -76.16568 | 42946 ft | 476 kts | 206° |
| 2026-05-05 15:21 | 8.79469 | -76.19468 | 42946 ft | 478 kts | 206° |
| 2026-05-05 15:21 | 8.73459 | -76.22381 | 42949 ft | 480 kts | 206° |
| 2026-05-05 15:22 | 8.67483 | -76.25278 | 42953 ft | 479 kts | 206° |
| 2026-05-05 15:22 | 8.61496 | -76.28178 | 42950 ft | 476 kts | 206° |
| 2026-05-05 15:23 | 8.55537 | -76.31064 | 42943 ft | 474 kts | 206° |
| 2026-05-05 15:23 | 8.49594 | -76.33942 | 42943 ft | 474 kts | 206° |
| 2026-05-05 15:24 | 8.43666 | -76.36810 | 42946 ft | 478 kts | 206° |
| 2026-05-05 15:24 | 8.37641 | -76.39726 | 42952 ft | 482 kts | 206° |
| 2026-05-05 15:25 | 8.31582 | -76.42656 | 42954 ft | 482 kts | 206° |
| 2026-05-05 15:25 | 8.25554 | -76.45570 | 42956 ft | 479 kts | 206° |
| 2026-05-05 15:26 | 8.19289 | -76.47760 | 42953 ft | 477 kts | 194° |
| 2026-05-05 15:26 | 8.12894 | -76.49384 | 42957 ft | 478 kts | 194° |
| 2026-05-05 15:27 | 8.06428 | -76.51044 | 42959 ft | 481 kts | 194° |
| 2026-05-05 15:27 | 7.99928 | -76.52699 | 42965 ft | 483 kts | 194° |
| 2026-05-05 15:28 | 7.93406 | -76.54368 | 42969 ft | 484 kts | 194° |
| 2026-05-05 15:28 | 7.86939 | -76.56016 | 42969 ft | 481 kts | 194° |
| 2026-05-05 15:29 | 7.80459 | -76.57671 | 42966 ft | 479 kts | 194° |
| 2026-05-05 15:29 | 7.74006 | -76.59317 | 42962 ft | 479 kts | 195° |
| 2026-05-05 15:30 | 7.67537 | -76.60967 | 42965 ft | 480 kts | 195° |
| 2026-05-05 15:30 | 7.61102 | -76.62607 | 42968 ft | 481 kts | 195° |
| 2026-05-05 15:31 | 7.54612 | -76.64261 | 42966 ft | 481 kts | 195° |
| 2026-05-05 15:31 | 7.48133 | -76.65912 | 42960 ft | 480 kts | 195° |
| 2026-05-05 15:32 | 7.41676 | -76.67556 | 42958 ft | 479 kts | 195° |
| 2026-05-05 15:32 | 7.36310 | -76.68923 | 42957 ft | 478 kts | 195° |
| 2026-05-05 15:33 | 7.28812 | -76.70832 | 42952 ft | 477 kts | 195° |
| 2026-05-05 15:33 | 7.22366 | -76.72472 | 42953 ft | 479 kts | 195° |
| 2026-05-05 15:34 | 7.15893 | -76.74119 | 42959 ft | 481 kts | 195° |
| 2026-05-05 15:34 | 7.10494 | -76.75492 | 42961 ft | 482 kts | 195° |
| 2026-05-05 15:35 | 7.02923 | -76.77417 | 42975 ft | 483 kts | 195° |
| 2026-05-05 15:35 | 6.96423 | -76.79069 | 42974 ft | 481 kts | 195° |
| 2026-05-05 15:36 | 6.91035 | -76.80438 | 42962 ft | 479 kts | 195° |
| 2026-05-05 15:36 | 6.84579 | -76.82079 | 42960 ft | 478 kts | 195° |
| 2026-05-05 15:37 | 6.78143 | -76.83713 | 42961 ft | 477 kts | 195° |
| 2026-05-05 15:37 | 6.70649 | -76.85616 | 42964 ft | 479 kts | 195° |
| 2026-05-05 15:38 | 6.65268 | -76.86981 | 42974 ft | 481 kts | 195° |
| 2026-05-05 15:38 | 6.58767 | -76.88631 | 42976 ft | 483 kts | 195° |
| 2026-05-05 15:39 | 6.52239 | -76.90287 | 42975 ft | 484 kts | 195° |
| 2026-05-05 15:39 | 6.45716 | -76.91942 | 42980 ft | 482 kts | 195° |
| 2026-05-05 15:40 | 6.39262 | -76.93578 | 42978 ft | 481 kts | 195° |
| 2026-05-05 15:40 | 6.32782 | -76.95221 | 42976 ft | 479 kts | 195° |
| 2026-05-05 15:41 | 6.25279 | -76.97123 | 42978 ft | 477 kts | 195° |
| 2026-05-05 15:41 | 6.19896 | -76.98486 | 42982 ft | 475 kts | 195° |
| 2026-05-05 15:42 | 6.13525 | -77.00101 | 42977 ft | 476 kts | 195° |
| 2026-05-05 15:42 | 6.07241 | -77.02200 | 42994 ft | 477 kts | 201° |
| 2026-05-05 15:43 | 6.00965 | -77.04419 | 42999 ft | 479 kts | 200° |
| 2026-05-05 15:43 | 5.94659 | -77.06648 | 42999 ft | 481 kts | 200° |
| 2026-05-05 15:44 | 5.88364 | -77.08876 | 42991 ft | 478 kts | 200° |
| 2026-05-05 15:44 | 5.82160 | -77.11068 | 42987 ft | 474 kts | 200° |
| 2026-05-05 15:45 | 5.75947 | -77.13265 | 42988 ft | 473 kts | 200° |
| 2026-05-05 15:45 | 5.69715 | -77.15467 | 42991 ft | 476 kts | 200° |
| 2026-05-05 15:46 | 5.63447 | -77.17682 | 42995 ft | 479 kts | 200° |
| 2026-05-05 15:46 | 5.57198 | -77.19889 | 42998 ft | 480 kts | 200° |
| 2026-05-05 15:47 | 5.50918 | -77.22106 | 42998 ft | 476 kts | 200° |
| 2026-05-05 15:47 | 5.44686 | -77.24307 | 42981 ft | 473 kts | 200° |
| 2026-05-05 15:48 | 5.38465 | -77.26503 | 42981 ft | 475 kts | 200° |
| 2026-05-05 15:48 | 5.32220 | -77.28706 | 42980 ft | 477 kts | 200° |
| 2026-05-05 15:49 | 5.25990 | -77.30904 | 42983 ft | 478 kts | 200° |
| 2026-05-05 15:49 | 5.19702 | -77.33123 | 42985 ft | 480 kts | 200° |
| 2026-05-05 15:50 | 5.13412 | -77.35341 | 42979 ft | 478 kts | 200° |
| 2026-05-05 15:50 | 5.07150 | -77.37549 | 42968 ft | 476 kts | 200° |
| 2026-05-05 15:51 | 5.00957 | -77.39732 | 42962 ft | 474 kts | 200° |
| 2026-05-05 15:51 | 4.94743 | -77.41922 | 42957 ft | 474 kts | 200° |
| 2026-05-05 15:52 | 4.88512 | -77.44118 | 42963 ft | 475 kts | 200° |
| 2026-05-05 15:52 | 4.82263 | -77.46320 | 42964 ft | 477 kts | 200° |
| 2026-05-05 15:53 | 4.76009 | -77.48523 | 42963 ft | 475 kts | 200° |
| 2026-05-05 15:53 | 4.69827 | -77.50700 | 42960 ft | 473 kts | 200° |
| 2026-05-05 15:54 | 4.63638 | -77.52879 | 42948 ft | 471 kts | 200° |
| 2026-05-05 15:54 | 4.57452 | -77.55057 | 42948 ft | 472 kts | 200° |
| 2026-05-05 15:55 | 4.51251 | -77.57240 | 42953 ft | 473 kts | 200° |
| 2026-05-05 15:55 | 4.45064 | -77.59417 | 42960 ft | 475 kts | 201° |
| 2026-05-05 15:56 | 4.38842 | -77.61606 | 42957 ft | 473 kts | 201° |
| 2026-05-05 15:56 | 4.32646 | -77.63786 | 42954 ft | 471 kts | 201° |
| 2026-05-05 15:57 | 4.26477 | -77.65956 | 42952 ft | 469 kts | 201° |
| 2026-05-05 15:57 | 4.20369 | -77.68104 | 42942 ft | 469 kts | 201° |
| 2026-05-05 15:58 | 4.14201 | -77.70273 | 42941 ft | 470 kts | 201° |
| 2026-05-05 15:58 | 4.08013 | -77.72448 | 42938 ft | 472 kts | 201° |
| 2026-05-05 15:59 | 4.01811 | -77.74628 | 42935 ft | 472 kts | 201° |
| 2026-05-05 15:59 | 3.95652 | -77.76793 | 42934 ft | 471 kts | 201° |
| 2026-05-05 16:00 | 3.89471 | -77.78965 | 42932 ft | 470 kts | 201° |
| 2026-05-05 16:00 | 3.83300 | -77.81133 | 42931 ft | 469 kts | 201° |
| 2026-05-05 16:01 | 3.77145 | -77.83295 | 42931 ft | 469 kts | 201° |
| 2026-05-05 16:01 | 3.70997 | -77.85454 | 42930 ft | 468 kts | 201° |
| 2026-05-05 16:02 | 3.64897 | -77.87596 | 42931 ft | 467 kts | 201° |
| 2026-05-05 16:02 | 3.58774 | -77.89746 | 42930 ft | 466 kts | 201° |
| 2026-05-05 16:03 | 3.52661 | -77.91892 | 42929 ft | 465 kts | 201° |
| 2026-05-05 16:03 | 3.46552 | -77.94037 | 42928 ft | 466 kts | 201° |
| 2026-05-05 16:04 | 3.40424 | -77.96188 | 42930 ft | 467 kts | 201° |
| 2026-05-05 16:04 | 3.34316 | -77.98331 | 42932 ft | 469 kts | 201° |
| 2026-05-05 16:05 | 3.28142 | -78.00497 | 42934 ft | 471 kts | 201° |
| 2026-05-05 16:05 | 3.21946 | -78.02671 | 42936 ft | 472 kts | 201° |
| 2026-05-05 16:06 | 3.15746 | -78.04846 | 42937 ft | 471 kts | 201° |
| 2026-05-05 16:06 | 3.09572 | -78.07012 | 42934 ft | 469 kts | 201° |
| 2026-05-05 16:07 | 3.03461 | -78.09155 | 42929 ft | 468 kts | 201° |
| 2026-05-05 16:07 | 2.97327 | -78.11306 | 42931 ft | 466 kts | 201° |
| 2026-05-05 16:08 | 2.91222 | -78.13446 | 42933 ft | 464 kts | 201° |
| 2026-05-05 16:08 | 2.85133 | -78.15581 | 42932 ft | 464 kts | 201° |
| 2026-05-05 16:09 | 2.79063 | -78.17709 | 42932 ft | 466 kts | 201° |
| 2026-05-05 16:09 | 2.72927 | -78.19860 | 42937 ft | 468 kts | 201° |
| 2026-05-05 16:10 | 2.66772 | -78.22017 | 42940 ft | 470 kts | 201° |
| 2026-05-05 16:10 | 2.60605 | -78.24178 | 42934 ft | 469 kts | 201° |
| 2026-05-05 16:11 | 2.54479 | -78.26324 | 42930 ft | 464 kts | 201° |
| 2026-05-05 16:12 | 2.42389 | -78.30561 | 42922 ft | 463 kts | 201° |
| 2026-05-05 16:13 | 2.27139 | -78.35902 | 42930 ft | 468 kts | 201° |
| 2026-05-05 16:13 | 2.21008 | -78.38048 | 42931 ft | 465 kts | 201° |
| 2026-05-05 16:14 | 2.08877 | -78.42296 | 42925 ft | 460 kts | 201° |
| 2026-05-05 16:15 | 1.96800 | -78.46525 | 42931 ft | 463 kts | 201° |
| 2026-05-05 16:16 | 1.84594 | -78.50797 | 42948 ft | 465 kts | 202° |
| 2026-05-05 16:17 | 1.75548 | -78.53963 | 42945 ft | 457 kts | 202° |
| 2026-05-05 16:18 | 1.66549 | -78.57114 | 42944 ft | 458 kts | 202° |
| 2026-05-05 16:19 | 1.57476 | -78.60289 | 42953 ft | 463 kts | 202° |
| 2026-05-05 16:19 | 1.48402 | -78.63463 | 42975 ft | 462 kts | 202° |
| 2026-05-05 16:20 | 1.36328 | -78.67687 | 42973 ft | 457 kts | 202° |
| 2026-05-05 16:22 | 1.21230 | -78.72691 | 43021 ft | 461 kts | 201° |
| 2026-05-05 16:23 | 1.08980 | -78.76679 | 43055 ft | 463 kts | 201° |
| 2026-05-05 16:23 | 0.99822 | -78.79661 | 43085 ft | 460 kts | 201° |
| 2026-05-05 16:24 | 0.93789 | -78.81627 | 43082 ft | 458 kts | 201° |
| 2026-05-05 16:25 | 0.84713 | -78.84584 | 43085 ft | 458 kts | 201° |
| 2026-05-05 16:25 | 0.75597 | -78.87553 | 43089 ft | 461 kts | 201° |
| 2026-05-05 16:26 | 0.63406 | -78.91524 | 43126 ft | 464 kts | 201° |
| 2026-05-05 16:27 | 0.57280 | -78.93520 | 43152 ft | 462 kts | 201° |
| 2026-05-05 16:27 | 0.51176 | -78.95508 | 43145 ft | 461 kts | 201° |
| 2026-05-05 16:28 | 0.45095 | -78.97489 | 43143 ft | 459 kts | 201° |
| 2026-05-05 16:28 | 0.39069 | -78.99451 | 43120 ft | 458 kts | 201° |
| 2026-05-05 16:29 | 0.33013 | -79.01424 | 43115 ft | 458 kts | 201° |
| 2026-05-05 16:29 | 0.26931 | -79.03405 | 43128 ft | 461 kts | 201° |
| 2026-05-05 16:30 | 0.20814 | -79.05398 | 43131 ft | 463 kts | 201° |
| 2026-05-05 16:30 | 0.14721 | -79.07381 | 43149 ft | 462 kts | 201° |
| 2026-05-05 16:31 | 0.08629 | -79.09365 | 43145 ft | 459 kts | 201° |
| 2026-05-05 16:31 | 0.02573 | -79.11338 | 43141 ft | 456 kts | 201° |
| 2026-05-05 16:32 | -0.03472 | -79.13307 | 43047 ft | 459 kts | 201° |
| 2026-05-05 16:32 | -0.06523 | -79.14310 | 42446 ft | 461 kts | 201° |
| 2026-05-05 16:32 | -0.09536 | -79.15377 | 41843 ft | 457 kts | 201° |
| 2026-05-05 16:33 | -0.12478 | -79.16406 | 41248 ft | 452 kts | 201° |
| 2026-05-05 16:33 | -0.15432 | -79.17434 | 40661 ft | 446 kts | 201° |
| 2026-05-05 16:33 | -0.18344 | -79.18457 | 40077 ft | 442 kts | 201° |
| 2026-05-05 16:33 | -0.21238 | -79.19477 | 39497 ft | 440 kts | 200° |
| 2026-05-05 16:34 | -0.24132 | -79.20494 | 38920 ft | 442 kts | 200° |
| 2026-05-05 16:34 | -0.27053 | -79.21517 | 38295 ft | 448 kts | 200° |
| 2026-05-05 16:34 | -0.30019 | -79.22558 | 37702 ft | 456 kts | 199° |
| 2026-05-05 16:34 | -0.33045 | -79.23622 | 37113 ft | 466 kts | 199° |
| 2026-05-05 16:35 | -0.36096 | -79.24692 | 36502 ft | 475 kts | 199° |
| 2026-05-05 16:35 | -0.39233 | -79.25792 | 35873 ft | 480 kts | 198° |
| 2026-05-05 16:35 | -0.42397 | -79.26902 | 35237 ft | 482 kts | 198° |
| 2026-05-05 16:35 | -0.45565 | -79.28015 | 34566 ft | 483 kts | 198° |
| 2026-05-05 16:36 | -0.48740 | -79.29130 | 33905 ft | 485 kts | 197° |
| 2026-05-05 16:36 | -0.51932 | -79.30250 | 33249 ft | 487 kts | 197° |
| 2026-05-05 16:36 | -0.55136 | -79.31374 | 32609 ft | 490 kts | 197° |
| 2026-05-05 16:36 | -0.58362 | -79.32507 | 31957 ft | 493 kts | 197° |
| 2026-05-05 16:37 | -0.61606 | -79.33645 | 31309 ft | 496 kts | 197° |
| 2026-05-05 16:37 | -0.64830 | -79.34777 | 30661 ft | 499 kts | 197° |
| 2026-05-05 16:37 | -0.68118 | -79.35932 | 29964 ft | 502 kts | 197° |
| 2026-05-05 16:37 | -0.71398 | -79.37084 | 29290 ft | 496 kts | 197° |
| 2026-05-05 16:38 | -0.74625 | -79.38218 | 28636 ft | 488 kts | 197° |
| 2026-05-05 16:38 | -0.77799 | -79.39332 | 27993 ft | 480 kts | 197° |
| 2026-05-05 16:38 | -0.80927 | -79.40429 | 27365 ft | 473 kts | 197° |
| 2026-05-05 16:38 | -0.84015 | -79.41513 | 26745 ft | 468 kts | 197° |
| 2026-05-05 16:39 | -0.87038 | -79.42573 | 26142 ft | 465 kts | 198° |
| 2026-05-05 16:39 | -0.90075 | -79.43637 | 25485 ft | 462 kts | 198° |
| 2026-05-05 16:39 | -0.93100 | -79.44696 | 24864 ft | 459 kts | 198° |
| 2026-05-05 16:39 | -0.96100 | -79.45748 | 24264 ft | 455 kts | 198° |
| 2026-05-05 16:40 | -0.99069 | -79.46788 | 23667 ft | 450 kts | 198° |
| 2026-05-05 16:40 | -1.02004 | -79.47817 | 23015 ft | 443 kts | 198° |
| 2026-05-05 16:40 | -1.04889 | -79.48829 | 22443 ft | 436 kts | 198° |
| 2026-05-05 16:40 | -1.07731 | -79.49824 | 21862 ft | 431 kts | 198° |
| 2026-05-05 16:41 | -1.10520 | -79.50801 | 21301 ft | 429 kts | 198° |
| 2026-05-05 16:41 | -1.13326 | -79.51784 | 20739 ft | 427 kts | 198° |
| 2026-05-05 16:41 | -1.16120 | -79.52764 | 20177 ft | 424 kts | 198° |
| 2026-05-05 16:41 | -1.18890 | -79.53735 | 19619 ft | 419 kts | 198° |
| 2026-05-05 16:42 | -1.21627 | -79.54694 | 19060 ft | 415 kts | 198° |
| 2026-05-05 16:42 | -1.24341 | -79.55645 | 18516 ft | 411 kts | 198° |
| 2026-05-05 16:42 | -1.27028 | -79.56587 | 17940 ft | 407 kts | 198° |
| 2026-05-05 16:42 | -1.29684 | -79.57518 | 17368 ft | 402 kts | 198° |
| 2026-05-05 16:43 | -1.32274 | -79.58427 | 16846 ft | 398 kts | 198° |
| 2026-05-05 16:43 | -1.34870 | -79.59336 | 16324 ft | 394 kts | 198° |
| 2026-05-05 16:43 | -1.37449 | -79.60240 | 15794 ft | 392 kts | 198° |
| 2026-05-05 16:43 | -1.40013 | -79.61139 | 15272 ft | 390 kts | 198° |
| 2026-05-05 16:44 | -1.42565 | -79.62033 | 14766 ft | 388 kts | 198° |
| 2026-05-05 16:44 | -1.45105 | -79.62924 | 14253 ft | 385 kts | 198° |
| 2026-05-05 16:44 | -1.47602 | -79.63800 | 13746 ft | 372 kts | 198° |
| 2026-05-05 16:44 | -1.49986 | -79.64631 | 13239 ft | 353 kts | 196° |
| 2026-05-05 16:45 | -1.52288 | -79.65297 | 12767 ft | 336 kts | 194° |
| 2026-05-05 16:45 | -1.54466 | -79.65912 | 12341 ft | 324 kts | 194° |
| 2026-05-05 16:45 | -1.56590 | -79.66522 | 11919 ft | 313 kts | 194° |
| 2026-05-05 16:45 | -1.58652 | -79.67118 | 11513 ft | 304 kts | 194° |
| 2026-05-05 16:46 | -1.60667 | -79.67696 | 11121 ft | 299 kts | 194° |
| 2026-05-05 16:46 | -1.62666 | -79.68268 | 10727 ft | 298 kts | 194° |
| 2026-05-05 16:46 | -1.64664 | -79.68840 | 10334 ft | 299 kts | 194° |
| 2026-05-05 16:46 | -1.66672 | -79.69416 | 9927 ft | 300 kts | 195° |
| 2026-05-05 16:47 | -1.68672 | -79.69991 | 9503 ft | 298 kts | 195° |
| 2026-05-05 16:47 | -1.70620 | -79.70550 | 9111 ft | 293 kts | 195° |
| 2026-05-05 16:47 | -1.72566 | -79.71108 | 8728 ft | 289 kts | 195° |
| 2026-05-05 16:47 | -1.74498 | -79.71662 | 8345 ft | 288 kts | 195° |
| 2026-05-05 16:48 | -1.76425 | -79.72215 | 7950 ft | 288 kts | 195° |
| 2026-05-05 16:48 | -1.78355 | -79.72769 | 7568 ft | 289 kts | 195° |
| 2026-05-05 16:48 | -1.80283 | -79.73322 | 7186 ft | 288 kts | 196° |
| 2026-05-05 16:48 | -1.82202 | -79.73873 | 6796 ft | 286 kts | 196° |
| 2026-05-05 16:49 | -1.84105 | -79.74419 | 6421 ft | 283 kts | 196° |
| 2026-05-05 16:49 | -1.85989 | -79.74960 | 6034 ft | 281 kts | 196° |
| 2026-05-05 16:49 | -1.87832 | -79.75489 | 5669 ft | 278 kts | 196° |
| 2026-05-05 16:49 | -1.89678 | -79.76019 | 5299 ft | 274 kts | 195° |
| 2026-05-05 16:50 | -1.91494 | -79.76546 | 4939 ft | 270 kts | 197° |
| 2026-05-05 16:50 | -1.93247 | -79.77212 | 4578 ft | 269 kts | 201° |
| 2026-05-05 16:50 | -1.94987 | -79.77905 | 4206 ft | 269 kts | 201° |
| 2026-05-05 16:50 | -1.96732 | -79.78585 | 3844 ft | 269 kts | 201° |
| 2026-05-05 16:51 | -1.98477 | -79.79261 | 3490 ft | 269 kts | 201° |
| 2026-05-05 16:51 | -2.00215 | -79.79939 | 3129 ft | 267 kts | 202° |
| 2026-05-05 16:51 | -2.01916 | -79.80603 | 2778 ft | 265 kts | 202° |
| 2026-05-05 16:51 | -2.03560 | -79.81390 | 2450 ft | 260 kts | 210° |
| 2026-05-05 16:52 | -2.05103 | -79.82238 | 2137 ft | 246 kts | 209° |
| 2026-05-05 16:52 | -2.06481 | -79.83009 | 1856 ft | 207 kts | 211° |
| 2026-05-05 16:52 | -2.07617 | -79.83682 | 1618 ft | 167 kts | 211° |
| 2026-05-05 16:52 | -2.08530 | -79.84201 | 1396 ft | 143 kts | 210° |
| 2026-05-05 16:53 | -2.09380 | -79.84695 | 1223 ft | 140 kts | 211° |
| 2026-05-05 16:53 | -2.10205 | -79.85170 | 1045 ft | 128 kts | 211° |
| 2026-05-05 16:53 | -2.10962 | -79.85617 | 892 ft | 129 kts | 211° |
| 2026-05-05 16:53 | -2.11747 | -79.86077 | 747 ft | 132 kts | 210° |
| 2026-05-05 16:54 | -2.12538 | -79.86525 | 589 ft | 132 kts | 210° |
| 2026-05-05 16:54 | -2.13330 | -79.86984 | 418 ft | 131 kts | 211° |
| 2026-05-05 16:54 | -2.14123 | -79.87440 | 240 ft | 130 kts | 209° |
| 2026-05-05 16:54 | -2.14893 | -79.87877 | 51 ft | 124 kts | 210° |
| 2026-05-05 16:55 | -2.15564 | -79.88264 | 21 ft | 91 kts | 211° |
| 2026-05-05 16:55 | -2.15845 | -79.88426 | 21 ft | 30 kts | 210° |
| 2026-05-05 16:55 | -2.15962 | -79.88492 | 21 ft | 15 kts | 211° |
| 2026-05-05 16:55 | -2.16024 | -79.88576 | 22 ft | 16 kts | 279° |
| 2026-05-05 16:56 | -2.15953 | -79.88598 | 23 ft | 3 kts | 24° |
| 2026-05-05 16:56 | -2.15952 | -79.88598 | 23 ft | 0 kts | 24° |
| 2026-05-05 16:56 | -2.15955 | -79.88613 | 23 ft | 9 kts | 197° |
| 2026-05-05 16:56 | -2.16061 | -79.88659 | 24 ft | 21 kts | 210° |
| 2026-05-05 16:57 | -2.16197 | -79.88738 | 24 ft | 24 kts | 209° |
| 2026-05-05 16:57 | -2.16355 | -79.88829 | 22 ft | 28 kts | 211° |
| 2026-05-05 16:57 | -2.16512 | -79.88920 | 22 ft | 21 kts | 210° |
| 2026-05-05 16:57 | -2.16592 | -79.88975 | 22 ft | 10 kts | 257° |
| 2026-05-05 16:58 | -2.16577 | -79.89037 | 23 ft | 7 kts | 259° |
| 2026-05-05 16:58 | -2.16564 | -79.89048 | 24 ft | 3 kts | 18° |
| 2026-05-05 16:58 | -2.16557 | -79.89044 | 23 ft | 1 kts | 29° |
| 2026-05-05 16:58 | -2.16552 | -79.89041 | 23 ft | 1 kts | 30° |
| 2026-05-05 16:59 | -2.16551 | -79.89041 | 23 ft | 0 kts | 30° |